createdAt,value
2018-08-31T00:02:22.985Z,64.69
2018-08-31T00:05:02.848Z,65.72
2018-08-31T00:07:48.723Z,65.36
2018-08-31T00:11:26.151Z,65.38
2018-08-31T00:13:54.960Z,65.28
2018-08-31T00:16:23.657Z,65.77
2018-08-31T00:18:52.533Z,66.16
2018-08-31T00:21:21.265Z,66.81
2018-08-31T00:24:00.975Z,66.90
2018-08-31T00:26:40.722Z,68.52
2018-08-31T00:29:52.739Z,68.32
2018-08-31T00:33:02.803Z,69.53
2018-08-31T00:36:18.094Z,70.22
2018-08-31T00:41:01.856Z,71.65
2018-08-31T00:43:50.176Z,72.27
2018-08-31T00:46:18.979Z,72.94
2018-08-31T00:48:47.819Z,73.59
2018-08-31T00:51:17.973Z,73.13
2018-08-31T00:53:46.812Z,73.63
2018-08-31T00:56:15.661Z,73.65
2018-08-31T00:58:44.528Z,73.59
2018-08-31T01:01:13.281Z,74.71
2018-08-31T01:03:42.084Z,75.18
2018-08-31T01:06:10.911Z,75.67
2018-08-31T01:08:39.734Z,75.92
2018-08-31T01:11:08.496Z,76.20
2018-08-31T01:13:38.020Z,76.46
2018-08-31T01:16:07.089Z,76.27
2018-08-31T01:18:36.029Z,76.42
2018-08-31T01:21:05.172Z,76.53
2018-08-31T01:23:34.408Z,77.73
2018-08-31T01:26:03.216Z,78.18
2018-08-31T01:28:31.992Z,78.09
2018-08-31T01:31:00.711Z,78.07
2018-08-31T01:33:29.612Z,78.54
2018-08-31T01:35:58.495Z,80.29
2018-08-31T01:38:27.258Z,80.19
2018-08-31T01:40:56.039Z,80.35
2018-08-31T01:43:24.772Z,81.16
2018-08-31T01:45:53.530Z,80.66
2018-08-31T01:48:22.320Z,80.97
2018-08-31T01:50:56.331Z,80.76
2018-08-31T01:53:28.646Z,80.42
2018-08-31T01:55:57.524Z,80.07
2018-08-31T01:58:26.373Z,80.48
2018-08-31T02:00:55.238Z,80.46
2018-08-31T02:03:23.980Z,81.00
2018-08-31T02:05:52.707Z,80.88
2018-08-31T02:08:21.412Z,80.24
2018-08-31T02:10:50.214Z,80.11
2018-08-31T02:13:19.048Z,80.70
2018-08-31T02:15:47.877Z,80.16
2018-08-31T02:18:16.602Z,80.01
2018-08-31T02:21:08.436Z,79.86
2018-08-31T02:23:52.652Z,80.42
2018-08-31T02:29:05.929Z,80.90
2018-08-31T02:31:34.675Z,80.43
2018-08-31T02:34:03.494Z,81.31
2018-08-31T02:36:32.339Z,81.04
2018-08-31T02:39:01.232Z,81.41
2018-08-31T02:41:29.945Z,81.35
2018-08-31T02:43:58.709Z,82.02
2018-08-31T02:46:28.248Z,81.39
2018-08-31T02:48:57.136Z,81.25
2018-08-31T02:51:25.960Z,81.87
2018-08-31T02:53:54.739Z,81.36
2018-08-31T02:56:23.609Z,81.03
2018-08-31T02:58:52.437Z,82.01
2018-08-31T03:01:21.223Z,82.27
2018-08-31T03:03:49.982Z,81.97
2018-08-31T03:06:18.827Z,81.54
2018-08-31T03:08:47.687Z,81.56
2018-08-31T03:11:16.619Z,82.21
2018-08-31T03:13:45.384Z,81.70
2018-08-31T03:16:14.125Z,81.64
2018-08-31T03:18:42.839Z,82.32
2018-08-31T03:21:11.582Z,82.13
2018-08-31T03:23:40.384Z,81.59
2018-08-31T03:26:09.152Z,83.24
2018-08-31T03:28:37.827Z,82.18
2018-08-31T03:31:06.641Z,83.26
2018-08-31T03:33:35.469Z,83.48
2018-08-31T03:36:04.330Z,83.94
2018-08-31T03:38:33.300Z,84.19
2018-08-31T03:41:02.118Z,83.37
2018-08-31T03:43:31.055Z,83.15
2018-08-31T03:45:59.970Z,84.03
2018-08-31T03:48:28.831Z,83.81
2018-08-31T03:50:57.650Z,83.78
2018-08-31T03:53:26.439Z,83.41
2018-08-31T03:55:55.258Z,83.67
2018-08-31T03:58:24.058Z,84.16
2018-08-31T04:00:52.931Z,84.13
2018-08-31T04:03:21.625Z,83.81
2018-08-31T04:05:50.455Z,83.25
2018-08-31T04:08:19.255Z,82.03
2018-08-31T04:10:48.003Z,81.90
2018-08-31T04:13:16.748Z,81.11
2018-08-31T04:15:45.530Z,80.12
2018-08-31T04:18:14.337Z,79.30
2018-08-31T04:20:51.888Z,77.88
2018-08-31T04:23:20.586Z,76.71
2018-08-31T04:25:49.299Z,76.77
2018-08-31T04:28:18.022Z,76.35
2018-08-31T04:30:46.842Z,76.25
2018-08-31T04:33:15.794Z,76.22
2018-08-31T04:35:44.553Z,76.08
2018-08-31T04:38:13.328Z,75.52
2018-08-31T04:40:42.121Z,75.15
2018-08-31T04:43:10.824Z,74.81
2018-08-31T04:45:39.532Z,73.63
2018-08-31T04:48:08.429Z,73.07
2018-08-31T04:50:37.254Z,71.70
2018-08-31T04:53:06.150Z,71.24
2018-08-31T04:55:35.012Z,71.52
2018-08-31T04:58:03.793Z,71.44
2018-08-31T05:00:32.727Z,69.94
2018-08-31T05:03:01.509Z,69.56
2018-08-31T05:05:30.390Z,67.81
2018-08-31T05:07:59.119Z,67.54
2018-08-31T05:10:27.992Z,67.23
2018-08-31T05:12:56.840Z,66.53
2018-08-31T05:15:25.592Z,65.76
2018-08-31T05:17:54.494Z,64.88
2018-08-31T05:20:23.651Z,64.74
2018-08-31T05:22:52.620Z,65.21
2018-08-31T05:25:21.360Z,66.07
2018-08-31T05:27:50.143Z,65.54
2018-08-31T05:30:18.956Z,64.14
2018-08-31T05:32:47.759Z,65.67
2018-08-31T05:35:17.411Z,65.94
2018-08-31T05:37:46.560Z,63.49
2018-08-31T05:40:15.884Z,62.21
2018-08-31T05:42:44.821Z,60.35
2018-08-31T05:45:13.636Z,58.51
2018-08-31T05:47:42.495Z,56.62
2018-08-31T05:50:11.533Z,56.06
2018-08-31T05:52:40.399Z,54.90
2018-08-31T05:55:09.303Z,54.79
2018-08-31T05:57:38.177Z,52.95
2018-08-31T06:00:07.294Z,53.54
2018-08-31T06:02:36.518Z,53.89
2018-08-31T06:05:05.241Z,52.57
2018-08-31T06:07:33.953Z,51.54
2018-08-31T06:10:02.753Z,51.87
2018-08-31T06:12:31.635Z,51.09
2018-08-31T06:15:00.394Z,51.48
2018-08-31T06:17:29.247Z,51.60
2018-08-31T06:19:58.025Z,51.93
2018-08-31T06:22:26.946Z,51.89
2018-08-31T06:24:55.928Z,51.75
2018-08-31T06:27:24.931Z,52.08
2018-08-31T06:29:53.770Z,50.98
2018-08-31T06:32:22.815Z,49.44
2018-08-31T06:34:51.999Z,48.04
2018-08-31T06:37:20.811Z,47.56
2018-08-31T06:39:49.808Z,48.05
2018-08-31T06:42:18.620Z,47.43
2018-08-31T06:44:47.508Z,47.27
2018-08-31T06:47:16.269Z,47.18
2018-08-31T06:49:44.996Z,48.00
2018-08-31T06:52:13.659Z,47.33
2018-08-31T06:54:42.418Z,47.44
2018-08-31T06:57:11.498Z,47.09
2018-08-31T06:59:40.170Z,47.21
2018-08-31T07:02:08.940Z,47.47
2018-08-31T07:04:38.426Z,46.84
2018-08-31T07:07:07.223Z,46.35
2018-08-31T07:09:35.942Z,46.59
2018-08-31T07:12:04.834Z,47.55
2018-08-31T07:14:33.563Z,46.75
2018-08-31T07:17:02.470Z,45.33
2018-08-31T07:19:31.527Z,44.94
2018-08-31T07:22:00.362Z,43.50
2018-08-31T07:24:29.362Z,44.35
2018-08-31T07:26:58.216Z,43.53
2018-08-31T07:29:26.994Z,43.31
2018-08-31T07:31:55.733Z,42.88
2018-08-31T07:34:24.479Z,43.75
2018-08-31T07:36:53.190Z,44.13
2018-08-31T07:39:21.863Z,44.08
2018-08-31T07:41:50.574Z,43.49
2018-08-31T07:44:19.348Z,45.01
2018-08-31T07:46:48.183Z,43.42
2018-08-31T07:49:17.038Z,41.83
2018-08-31T07:51:45.904Z,41.33
2018-08-31T07:54:14.752Z,42.16
2018-08-31T07:56:43.768Z,41.92
2018-08-31T07:59:12.436Z,42.01
2018-08-31T08:01:41.248Z,41.53
2018-08-31T08:04:10.049Z,42.37
2018-08-31T08:06:38.863Z,41.49
2018-08-31T08:09:09.136Z,40.84
2018-08-31T08:11:37.905Z,41.52
2018-08-31T08:14:06.722Z,40.38
2018-08-31T08:16:35.547Z,39.28
2018-08-31T08:19:04.766Z,39.90
2018-08-31T08:21:33.539Z,41.33
2018-08-31T08:24:02.296Z,40.48
2018-08-31T08:26:31.110Z,40.60
2018-08-31T08:28:59.874Z,39.62
2018-08-31T08:31:28.563Z,41.07
2018-08-31T08:33:57.410Z,38.30
2018-08-31T08:36:26.223Z,37.45
2018-08-31T08:38:54.929Z,38.08
2018-08-31T08:41:23.668Z,37.86
2018-08-31T08:43:52.478Z,38.95
2018-08-31T08:46:21.263Z,38.16
2018-08-31T08:48:50.193Z,38.04
2018-08-31T08:51:18.860Z,36.34
2018-08-31T08:53:47.645Z,37.27
2018-08-31T08:56:16.410Z,36.91
2018-08-31T08:58:45.404Z,36.52
2018-08-31T09:01:14.563Z,35.25
2018-08-31T09:03:43.709Z,35.78
2018-08-31T09:06:12.561Z,35.63
2018-08-31T09:08:41.280Z,35.93
2018-08-31T09:11:10.080Z,34.77
2018-08-31T09:13:38.932Z,36.52
2018-08-31T09:16:13.814Z,36.19
2018-08-31T09:18:42.531Z,35.19
2018-08-31T09:21:11.466Z,34.70
2018-08-31T09:23:40.151Z,34.63
2018-08-31T09:26:11.419Z,33.85
2018-08-31T09:28:40.174Z,34.13
2018-08-31T09:31:12.288Z,32.93
2018-08-31T09:33:41.193Z,32.98
2018-08-31T09:36:10.921Z,33.12
2018-08-31T09:38:39.716Z,31.78
2018-08-31T09:41:08.802Z,31.99
2018-08-31T09:43:37.610Z,32.24
2018-08-31T09:46:06.390Z,32.37
2018-08-31T09:48:35.118Z,33.02
2018-08-31T09:51:03.879Z,33.27
2018-08-31T09:53:32.936Z,31.66
2018-08-31T09:56:01.606Z,31.62
2018-08-31T09:58:30.338Z,31.27
2018-08-31T10:01:04.150Z,30.65
2018-08-31T10:03:33.263Z,30.84
2018-08-31T10:06:02.030Z,30.72
2018-08-31T10:08:30.897Z,29.31
2018-08-31T10:10:59.683Z,29.89
2018-08-31T10:13:28.527Z,29.29
2018-08-31T10:15:57.414Z,29.25
2018-08-31T10:18:26.599Z,29.70
2018-08-31T10:20:55.394Z,28.63
2018-08-31T10:23:24.261Z,28.64
2018-08-31T10:25:53.129Z,28.51
2018-08-31T10:28:21.860Z,27.93
2018-08-31T10:30:50.711Z,27.88
2018-08-31T10:33:19.489Z,27.59
2018-08-31T10:35:48.168Z,27.31
2018-08-31T10:38:17.069Z,27.58
2018-08-31T10:40:45.855Z,27.46
2018-08-31T10:43:14.662Z,26.87
2018-08-31T10:45:43.373Z,27.21
2018-08-31T10:48:12.118Z,27.69
2018-08-31T10:50:40.882Z,27.42
2018-08-31T10:53:09.683Z,27.39
2018-08-31T10:55:38.363Z,28.15
2018-08-31T10:58:07.467Z,28.08
2018-08-31T11:00:36.451Z,27.45
2018-08-31T11:03:05.410Z,28.19
2018-08-31T11:05:34.195Z,27.10
2018-08-31T11:08:02.983Z,27.22
2018-08-31T11:10:31.653Z,27.16
2018-08-31T11:13:00.363Z,26.58
2018-08-31T11:15:29.236Z,26.27
2018-08-31T11:17:57.964Z,26.55
2018-08-31T11:20:26.822Z,25.21
2018-08-31T11:22:55.635Z,25.36
2018-08-31T11:25:24.498Z,25.83
2018-08-31T11:27:53.338Z,25.84
2018-08-31T11:30:22.103Z,24.77
2018-08-31T11:32:51.071Z,23.58
2018-08-31T11:35:19.935Z,24.23
2018-08-31T11:37:48.666Z,24.36
2018-08-31T11:40:17.352Z,24.75
2018-08-31T11:42:46.166Z,24.95
2018-08-31T11:45:15.102Z,25.57
2018-08-31T11:47:43.839Z,26.25
2018-08-31T11:50:12.639Z,25.91
2018-08-31T11:52:41.305Z,24.37
2018-08-31T11:55:10.051Z,23.50
2018-08-31T11:57:38.667Z,22.25
2018-08-31T12:00:07.638Z,21.71
2018-08-31T12:02:36.439Z,21.47
2018-08-31T12:05:05.309Z,21.92
2018-08-31T12:07:34.090Z,22.90
2018-08-31T12:10:02.955Z,24.44
2018-08-31T12:12:32.507Z,25.11
2018-08-31T12:15:01.221Z,25.38
2018-08-31T12:17:30.665Z,25.75
2018-08-31T12:19:59.363Z,25.77
2018-08-31T12:22:28.134Z,26.46
2018-08-31T12:24:56.790Z,25.10
2018-08-31T12:27:25.576Z,24.33
2018-08-31T12:29:54.493Z,25.31
2018-08-31T12:32:23.269Z,25.40
2018-08-31T12:34:51.958Z,26.22
2018-08-31T12:37:21.330Z,25.15
2018-08-31T12:39:50.254Z,26.20
2018-08-31T12:42:19.016Z,26.34
2018-08-31T12:44:47.752Z,25.17
2018-08-31T12:47:16.544Z,26.06
2018-08-31T12:49:45.410Z,26.01
2018-08-31T12:52:14.198Z,26.59
2018-08-31T12:54:42.974Z,27.91
2018-08-31T12:57:11.659Z,27.73
2018-08-31T12:59:44.749Z,26.97
2018-08-31T13:02:13.538Z,27.27
2018-08-31T13:04:42.278Z,26.79
2018-08-31T13:07:11.000Z,28.30
2018-08-31T13:09:39.739Z,27.91
2018-08-31T13:12:08.426Z,26.50
2018-08-31T13:14:37.111Z,27.73
2018-08-31T13:17:06.027Z,28.24
2018-08-31T13:19:34.687Z,29.35
2018-08-31T13:22:03.557Z,28.56
2018-08-31T13:24:32.387Z,28.75
2018-08-31T13:27:01.199Z,29.24
2018-08-31T13:29:29.966Z,28.69
2018-08-31T13:31:58.785Z,28.67
2018-08-31T13:34:27.484Z,28.80
2018-08-31T13:36:56.317Z,28.85
2018-08-31T13:39:25.067Z,29.14
2018-08-31T13:41:53.785Z,29.43
2018-08-31T13:44:22.601Z,29.06
2018-08-31T13:46:51.424Z,29.81
2018-08-31T13:49:20.139Z,29.67
2018-08-31T13:51:48.931Z,30.01
2018-08-31T13:54:17.601Z,29.15
2018-08-31T13:56:46.355Z,30.05
2018-08-31T13:59:15.040Z,30.16
2018-08-31T14:01:43.891Z,30.32
2018-08-31T14:04:12.885Z,30.01
2018-08-31T14:06:41.580Z,30.34
2018-08-31T14:09:10.403Z,30.35
2018-08-31T14:11:39.130Z,30.56
2018-08-31T14:14:07.856Z,30.33
2018-08-31T14:16:37.440Z,31.68
2018-08-31T14:19:07.931Z,31.59
2018-08-31T14:21:36.674Z,31.21
2018-08-31T14:24:05.857Z,31.35
2018-08-31T14:26:34.718Z,31.18
2018-08-31T14:29:03.414Z,32.44
2018-08-31T14:31:32.127Z,32.38
2018-08-31T14:34:01.031Z,31.68
2018-08-31T14:36:29.840Z,31.38
2018-08-31T14:38:58.630Z,32.19
2018-08-31T14:41:27.350Z,32.24
2018-08-31T14:43:56.179Z,32.24
2018-08-31T14:46:24.955Z,31.80
2018-08-31T14:48:53.713Z,32.38
2018-08-31T14:51:22.435Z,32.11
2018-08-31T14:53:51.145Z,32.48
2018-08-31T14:56:19.930Z,32.19
2018-08-31T14:58:51.102Z,32.22
2018-08-31T15:01:20.039Z,32.78
2018-08-31T15:03:48.882Z,33.10
2018-08-31T15:06:21.424Z,33.38
2018-08-31T15:08:50.807Z,32.51
2018-08-31T15:11:19.611Z,33.17
2018-08-31T15:13:48.373Z,33.65
2018-08-31T15:16:17.173Z,34.58
2018-08-31T15:18:45.859Z,34.87
2018-08-31T15:21:14.537Z,34.18
2018-08-31T15:23:43.358Z,34.18
2018-08-31T15:26:12.079Z,34.13
2018-08-31T15:28:40.775Z,34.46
2018-08-31T15:31:09.562Z,34.29
2018-08-31T15:33:38.283Z,34.45
2018-08-31T15:36:06.927Z,34.64
2018-08-31T15:38:35.753Z,34.98
2018-08-31T15:41:04.635Z,35.08
2018-08-31T15:43:33.298Z,35.74
2018-08-31T15:46:02.018Z,35.10
2018-08-31T15:48:30.682Z,35.67
2018-08-31T15:50:59.463Z,36.07
2018-08-31T15:53:28.203Z,36.16
2018-08-31T15:55:56.895Z,35.86
2018-08-31T15:58:25.732Z,36.51
2018-08-31T16:00:54.444Z,35.89
2018-08-31T16:03:23.130Z,35.05
2018-08-31T16:05:52.003Z,36.96
2018-08-31T16:08:20.822Z,35.99
2018-08-31T16:10:49.578Z,36.89
2018-08-31T16:13:18.346Z,36.45
2018-08-31T16:15:47.046Z,37.35
2018-08-31T16:18:15.794Z,36.53
2018-08-31T16:20:44.558Z,37.66
2018-08-31T16:23:13.323Z,38.79
2018-08-31T16:25:42.233Z,38.89
2018-08-31T16:28:10.989Z,39.19
2018-08-31T16:30:39.822Z,39.41
2018-08-31T16:33:08.570Z,40.50
2018-08-31T16:35:37.390Z,40.12
2018-08-31T16:38:06.186Z,40.10
2018-08-31T16:40:35.022Z,41.57
2018-08-31T16:43:03.802Z,42.23
2018-08-31T16:45:32.638Z,41.86
2018-08-31T16:48:01.542Z,42.74
2018-08-31T16:50:30.214Z,43.42
2018-08-31T16:52:58.960Z,42.93
2018-08-31T16:55:42.246Z,43.59
2018-08-31T16:58:10.958Z,43.19
2018-08-31T17:00:39.711Z,43.19
2018-08-31T17:03:08.526Z,43.86
2018-08-31T17:05:37.377Z,44.14
2018-08-31T17:08:06.069Z,43.38
2018-08-31T17:10:34.820Z,44.13
2018-08-31T17:13:03.590Z,44.23
2018-08-31T17:15:32.287Z,43.55
2018-08-31T17:18:00.946Z,44.45
2018-08-31T17:20:29.808Z,44.67
2018-08-31T17:22:58.494Z,44.38
2018-08-31T17:25:27.198Z,44.68
2018-08-31T17:28:01.180Z,45.14
2018-08-31T17:30:29.901Z,44.48
2018-08-31T17:33:04.099Z,44.81
2018-08-31T17:35:38.038Z,44.91
2018-08-31T17:38:06.727Z,45.53
2018-08-31T17:40:35.426Z,46.60
2018-08-31T17:43:18.686Z,46.52
2018-08-31T17:45:47.496Z,47.00
2018-08-31T17:48:16.301Z,46.93
2018-08-31T17:50:45.008Z,47.13
2018-08-31T17:53:13.857Z,47.00
2018-08-31T17:55:42.611Z,47.03
2018-08-31T17:58:11.397Z,47.16
2018-08-31T18:00:40.143Z,47.02
2018-08-31T18:03:08.835Z,47.17
2018-08-31T18:05:37.514Z,47.33
2018-08-31T18:08:06.226Z,47.20
2018-08-31T18:10:34.879Z,47.08
2018-08-31T18:13:03.678Z,47.21
2018-08-31T18:15:32.497Z,47.31
2018-08-31T18:18:01.178Z,47.46
2018-08-31T18:20:29.863Z,47.25
2018-08-31T18:22:58.611Z,47.52
2018-08-31T18:25:27.395Z,47.90
2018-08-31T18:27:56.170Z,48.02
2018-08-31T18:30:24.878Z,48.05
2018-08-31T18:32:53.585Z,48.03
2018-08-31T18:35:22.401Z,47.94
2018-08-31T18:37:51.101Z,47.98
2018-08-31T18:40:19.834Z,48.10
2018-08-31T18:42:48.739Z,47.90
2018-08-31T18:45:17.459Z,47.82
2018-08-31T18:47:46.158Z,47.48
2018-08-31T18:50:15.034Z,48.48
2018-08-31T18:52:43.863Z,48.40
2018-08-31T18:55:12.539Z,48.13
2018-08-31T18:57:41.416Z,47.89
2018-08-31T19:00:12.798Z,48.42
2018-08-31T19:02:41.526Z,48.62
2018-08-31T19:05:10.274Z,47.91
2018-08-31T19:07:39.222Z,48.43
2018-08-31T19:10:08.050Z,48.26
2018-08-31T19:12:36.917Z,49.55
2018-08-31T19:15:05.816Z,48.25
2018-08-31T19:17:36.522Z,49.33
2018-08-31T19:20:05.249Z,49.29
2018-08-31T19:22:33.941Z,48.74
2018-08-31T19:25:02.675Z,48.96
2018-08-31T19:27:31.463Z,50.01
2018-08-31T19:30:00.297Z,49.78
2018-08-31T19:32:29.105Z,50.14
2018-08-31T19:34:57.852Z,50.76
2018-08-31T19:37:26.531Z,50.12
2018-08-31T19:39:55.378Z,50.25
2018-08-31T19:42:24.444Z,51.25
2018-08-31T19:44:53.181Z,50.92
2018-08-31T19:47:21.945Z,50.83
2018-08-31T19:49:51.401Z,51.78
2018-08-31T19:52:20.094Z,51.75
2018-08-31T19:54:48.775Z,51.17
2018-08-31T19:57:17.492Z,51.25
2018-08-31T19:59:46.118Z,52.06
2018-08-31T20:02:14.845Z,51.59
2018-08-31T20:04:43.658Z,52.46
2018-08-31T20:07:12.457Z,51.92
2018-08-31T20:09:41.175Z,52.24
2018-08-31T20:12:09.904Z,52.51
2018-08-31T20:14:38.629Z,52.35
2018-08-31T20:17:07.403Z,52.70
2018-08-31T20:19:36.261Z,52.12
2018-08-31T20:22:07.732Z,52.29
2018-08-31T20:24:36.442Z,52.11
2018-08-31T20:27:05.202Z,52.46
2018-08-31T20:29:34.016Z,52.37
2018-08-31T20:32:02.933Z,51.96
2018-08-31T20:34:31.676Z,52.69
2018-08-31T20:37:00.425Z,52.77
2018-08-31T20:39:29.136Z,52.51
2018-08-31T20:41:57.804Z,51.79
2018-08-31T20:44:26.515Z,52.81
2018-08-31T20:46:55.350Z,52.37
2018-08-31T20:49:24.170Z,52.22
2018-08-31T20:51:52.890Z,52.43
2018-08-31T20:54:21.592Z,52.28
2018-08-31T20:56:50.255Z,52.92
2018-08-31T20:59:18.925Z,52.49
2018-08-31T21:01:47.595Z,53.12
2018-08-31T21:04:16.281Z,53.08
2018-08-31T21:06:45.092Z,53.44
2018-08-31T21:09:13.794Z,53.16
2018-08-31T21:11:42.527Z,52.01
2018-08-31T21:14:11.260Z,52.43
2018-08-31T21:16:40.057Z,52.36
2018-08-31T21:19:08.940Z,52.05
2018-08-31T21:21:37.728Z,52.35
2018-08-31T21:24:06.586Z,53.46
2018-08-31T21:26:35.362Z,53.48
2018-08-31T21:29:04.105Z,53.03
2018-08-31T21:31:32.861Z,53.17
2018-08-31T21:34:01.629Z,54.13
2018-08-31T21:36:30.447Z,54.48
2018-08-31T21:38:59.196Z,54.00
2018-08-31T21:41:27.927Z,54.98
2018-08-31T21:43:56.776Z,54.91
2018-08-31T21:46:25.537Z,55.31
2018-08-31T21:48:54.434Z,55.22
2018-08-31T21:51:23.249Z,55.48
2018-08-31T21:53:52.077Z,55.25
2018-08-31T21:56:20.793Z,55.94
2018-08-31T21:58:49.782Z,55.64
2018-08-31T22:01:23.674Z,56.63
2018-08-31T22:03:52.512Z,56.45
2018-08-31T22:06:21.357Z,57.43
2018-08-31T22:08:50.075Z,56.96
2018-08-31T22:11:18.810Z,56.96
2018-08-31T22:13:47.621Z,58.30
2018-08-31T22:16:16.568Z,57.84
2018-08-31T22:18:45.367Z,58.13
2018-08-31T22:21:14.269Z,58.53
2018-08-31T22:23:43.072Z,58.92
2018-08-31T22:26:12.122Z,58.55
2018-08-31T22:28:41.004Z,58.96
2018-08-31T22:31:09.788Z,59.73
2018-08-31T22:33:38.603Z,59.98
2018-08-31T22:36:07.370Z,59.67
2018-08-31T22:38:36.110Z,59.82
2018-08-31T22:41:04.920Z,59.52
2018-08-31T22:43:39.001Z,59.53
2018-08-31T22:46:07.700Z,59.12
2018-08-31T22:48:36.427Z,59.94
2018-08-31T22:51:05.177Z,59.60
2018-08-31T22:53:33.926Z,59.38
2018-08-31T22:56:02.712Z,59.59
2018-08-31T22:58:31.619Z,59.19
2018-08-31T23:01:00.472Z,59.22
2018-08-31T23:03:29.225Z,59.83
2018-08-31T23:05:58.074Z,59.06
2018-08-31T23:08:26.853Z,59.25
2018-08-31T23:10:55.699Z,60.10
2018-08-31T23:13:24.628Z,59.94
2018-08-31T23:15:53.578Z,60.03
2018-08-31T23:18:22.376Z,59.69
2018-08-31T23:20:51.315Z,60.34
2018-08-31T23:23:25.155Z,60.52
2018-08-31T23:25:53.828Z,60.42
2018-08-31T23:28:22.844Z,59.86
2018-08-31T23:30:51.623Z,60.11
2018-08-31T23:33:20.476Z,61.04
2018-08-31T23:35:49.201Z,60.66
2018-08-31T23:38:17.874Z,61.25
2018-08-31T23:40:46.555Z,61.39
2018-08-31T23:43:15.249Z,61.66
2018-08-31T23:45:44.056Z,61.67
2018-08-31T23:48:12.883Z,61.48
2018-08-31T23:50:41.643Z,62.19
2018-08-31T23:53:10.395Z,63.25
2018-08-31T23:55:39.115Z,63.05
2018-08-31T23:58:07.859Z,64.00
